createdAt,value
2018-03-31T00:00:18.349Z,0.00
2018-03-31T00:01:18.692Z,0.00
2018-03-31T00:02:18.737Z,0.00
2018-03-31T00:03:18.935Z,0.00
2018-03-31T00:04:19.168Z,0.00
2018-03-31T00:05:19.184Z,0.00
2018-03-31T00:06:19.560Z,0.00
2018-03-31T00:07:19.660Z,0.00
2018-03-31T00:08:19.867Z,0.00
2018-03-31T00:09:19.973Z,0.00
2018-03-31T00:10:20.158Z,0.00
2018-03-31T00:11:20.329Z,0.00
2018-03-31T00:12:20.507Z,0.00
2018-03-31T00:13:20.777Z,0.00
2018-03-31T00:14:20.784Z,0.00
2018-03-31T00:15:21.022Z,0.00
2018-03-31T00:16:21.175Z,0.00
2018-03-31T00:17:21.213Z,0.00
2018-03-31T00:18:21.442Z,0.00
2018-03-31T00:19:21.628Z,0.00
2018-03-31T00:20:21.704Z,0.00
2018-03-31T00:21:22.057Z,0.00
2018-03-31T00:22:22.284Z,0.00
2018-03-31T00:23:22.370Z,0.00
2018-03-31T00:24:22.482Z,0.00
2018-03-31T00:25:22.625Z,0.00
2018-03-31T00:26:22.542Z,0.00
2018-03-31T00:27:22.874Z,0.00
2018-03-31T00:28:23.049Z,0.00
2018-03-31T00:29:23.278Z,0.00
2018-03-31T00:30:23.311Z,0.00
2018-03-31T00:31:23.517Z,0.00
2018-03-31T00:32:23.700Z,0.00
2018-03-31T00:33:23.643Z,0.00
2018-03-31T00:34:24.065Z,0.00
2018-03-31T00:35:23.937Z,0.00
2018-03-31T00:36:24.256Z,0.00
2018-03-31T00:37:24.285Z,0.00
2018-03-31T00:38:24.447Z,0.00
2018-03-31T00:39:24.609Z,0.00
2018-03-31T00:40:24.771Z,0.00
2018-03-31T00:41:24.934Z,0.00
2018-03-31T00:42:25.106Z,0.00
2018-03-31T00:43:25.267Z,0.00
2018-03-31T00:44:25.432Z,0.00
2018-03-31T00:45:25.601Z,0.00
2018-03-31T00:46:25.785Z,0.00
2018-03-31T00:47:25.948Z,0.00
2018-03-31T00:48:26.110Z,0.00
2018-03-31T00:49:26.284Z,0.00
2018-03-31T00:50:26.453Z,0.00
2018-03-31T00:51:26.615Z,0.00
2018-03-31T00:52:26.798Z,0.00
2018-03-31T00:53:27.150Z,0.00
2018-03-31T00:54:27.280Z,0.00
2018-03-31T00:55:27.415Z,0.00
2018-03-31T00:56:27.431Z,0.00
2018-03-31T00:57:27.692Z,0.00
2018-03-31T00:58:27.720Z,0.00
2018-03-31T00:59:27.880Z,0.00
2018-03-31T01:00:28.062Z,0.00
2018-03-31T01:01:28.225Z,0.00
2018-03-31T01:02:28.385Z,0.00
2018-03-31T01:03:28.549Z,0.00
2018-03-31T01:04:28.719Z,0.00
2018-03-31T01:05:29.010Z,0.00
2018-03-31T01:06:29.096Z,0.00
2018-03-31T01:07:29.273Z,0.00
2018-03-31T01:08:29.433Z,0.00
2018-03-31T01:09:29.675Z,0.00
2018-03-31T01:10:29.826Z,0.00
2018-03-31T01:11:29.990Z,0.00
2018-03-31T01:12:30.159Z,0.00
2018-03-31T01:13:30.323Z,0.00
2018-03-31T01:14:30.498Z,0.00
2018-03-31T01:15:30.662Z,0.00
2018-03-31T01:16:31.110Z,0.00
2018-03-31T01:17:31.352Z,0.00
2018-03-31T01:18:31.235Z,0.00
2018-03-31T01:19:31.488Z,0.00
2018-03-31T01:20:31.575Z,0.00
2018-03-31T01:21:31.737Z,0.00
2018-03-31T01:22:32.167Z,0.00
2018-03-31T01:23:32.014Z,0.00
2018-03-31T01:24:32.190Z,0.00
2018-03-31T01:25:32.356Z,0.00
2018-03-31T01:26:32.526Z,0.00
2018-03-31T01:27:32.691Z,0.00
2018-03-31T01:28:32.855Z,0.00
2018-03-31T01:29:33.038Z,0.00
2018-03-31T01:30:33.212Z,0.00
2018-03-31T01:31:33.369Z,0.00
2018-03-31T01:32:33.532Z,0.00
2018-03-31T01:33:33.695Z,0.00
2018-03-31T01:34:33.861Z,0.00
2018-03-31T01:35:34.027Z,0.00
2018-03-31T01:36:34.198Z,0.00
2018-03-31T01:37:34.358Z,0.00
2018-03-31T01:38:34.525Z,0.00
2018-03-31T01:39:34.695Z,0.00
2018-03-31T01:40:34.862Z,0.00
2018-03-31T01:41:35.019Z,0.00
2018-03-31T01:42:35.214Z,0.00
2018-03-31T01:43:35.355Z,0.00
2018-03-31T01:44:35.525Z,0.00
2018-03-31T01:45:35.686Z,0.00
2018-03-31T01:46:35.864Z,0.00
2018-03-31T01:47:36.477Z,0.00
2018-03-31T01:48:36.200Z,0.00
2018-03-31T01:49:36.774Z,0.00
2018-03-31T01:50:36.421Z,0.00
2018-03-31T01:51:36.586Z,0.00
2018-03-31T01:52:36.756Z,0.00
2018-03-31T01:53:36.913Z,0.00
2018-03-31T01:54:37.080Z,0.00
2018-03-31T01:55:37.239Z,0.00
2018-03-31T01:56:37.411Z,0.00
2018-03-31T01:57:37.570Z,0.00
2018-03-31T01:58:37.737Z,0.00
2018-03-31T01:59:37.925Z,0.00
2018-03-31T02:00:38.066Z,0.00
2018-03-31T02:01:38.249Z,0.00
2018-03-31T02:02:38.405Z,0.00
2018-03-31T02:03:38.572Z,0.00
2018-03-31T02:04:38.735Z,0.00
2018-03-31T02:05:38.906Z,0.00
2018-03-31T02:06:39.074Z,0.00
2018-03-31T02:07:39.240Z,0.00
2018-03-31T02:08:39.401Z,0.00
2018-03-31T02:09:39.561Z,0.00
2018-03-31T02:10:39.739Z,0.00
2018-03-31T02:11:39.903Z,0.00
2018-03-31T02:12:40.077Z,0.00
2018-03-31T02:13:40.233Z,0.00
2018-03-31T02:14:40.394Z,0.00
2018-03-31T02:15:40.567Z,0.00
2018-03-31T02:16:40.729Z,0.00
2018-03-31T02:17:40.901Z,0.00
2018-03-31T02:18:41.515Z,0.00
2018-03-31T02:19:41.686Z,0.00
2018-03-31T02:20:41.863Z,0.00
2018-03-31T02:21:41.983Z,0.00
2018-03-31T02:22:42.223Z,0.00
2018-03-31T02:23:42.417Z,0.00
2018-03-31T02:24:42.598Z,0.00
2018-03-31T02:25:42.282Z,0.00
2018-03-31T02:26:42.446Z,0.00
2018-03-31T02:27:42.610Z,0.00
2018-03-31T02:28:42.774Z,0.00
2018-03-31T02:29:42.938Z,0.00
2018-03-31T02:30:43.105Z,0.00
2018-03-31T02:31:43.269Z,0.00
2018-03-31T02:32:43.438Z,0.00
2018-03-31T02:33:43.602Z,0.00
2018-03-31T02:34:43.769Z,0.00
2018-03-31T02:35:43.939Z,0.00
2018-03-31T02:36:44.123Z,0.00
2018-03-31T02:37:44.278Z,0.00
2018-03-31T02:38:44.450Z,0.00
2018-03-31T02:39:44.608Z,0.00
2018-03-31T02:40:44.778Z,0.00
2018-03-31T02:41:44.942Z,0.00
2018-03-31T02:42:45.110Z,0.00
2018-03-31T02:43:45.276Z,0.00
2018-03-31T02:44:45.449Z,0.00
2018-03-31T02:45:45.609Z,0.00
2018-03-31T02:46:45.769Z,0.00
2018-03-31T02:47:45.945Z,0.00
2018-03-31T02:48:46.088Z,0.00
2018-03-31T02:49:46.260Z,0.00
2018-03-31T02:50:46.446Z,0.00
2018-03-31T02:51:46.594Z,0.00
2018-03-31T02:52:46.763Z,0.00
2018-03-31T02:53:46.925Z,0.00
2018-03-31T02:54:47.091Z,0.00
2018-03-31T02:55:47.252Z,0.00
2018-03-31T02:56:47.421Z,0.00
2018-03-31T02:57:47.587Z,0.00
2018-03-31T02:58:47.758Z,0.00
2018-03-31T02:59:47.914Z,0.00
2018-03-31T03:00:48.083Z,0.00
2018-03-31T03:01:48.248Z,0.00
2018-03-31T03:02:48.412Z,0.00
2018-03-31T03:03:48.577Z,0.00
2018-03-31T03:04:48.798Z,0.00
2018-03-31T03:05:48.903Z,0.00
2018-03-31T03:06:49.075Z,0.00
2018-03-31T03:07:49.244Z,0.00
2018-03-31T03:08:49.411Z,0.00
2018-03-31T03:09:49.578Z,0.00
2018-03-31T03:10:49.748Z,0.00
2018-03-31T03:11:49.916Z,0.00
2018-03-31T03:12:50.074Z,0.00
2018-03-31T03:13:50.242Z,0.00
2018-03-31T03:14:50.405Z,0.00
2018-03-31T03:15:50.606Z,0.00
2018-03-31T03:16:50.733Z,0.00
2018-03-31T03:17:50.907Z,0.00
2018-03-31T03:18:51.078Z,0.00
2018-03-31T03:19:51.244Z,0.00
2018-03-31T03:20:51.417Z,0.00
2018-03-31T03:21:51.584Z,0.00
2018-03-31T03:22:51.756Z,0.00
2018-03-31T03:23:51.919Z,0.00
2018-03-31T03:24:52.083Z,0.00
2018-03-31T03:25:52.246Z,0.00
2018-03-31T03:26:52.416Z,0.00
2018-03-31T03:27:52.587Z,0.00
2018-03-31T03:28:52.747Z,0.00
2018-03-31T03:29:52.914Z,0.00
2018-03-31T03:30:53.077Z,0.00
2018-03-31T03:31:53.245Z,0.00
2018-03-31T03:32:53.412Z,0.00
2018-03-31T03:33:53.574Z,0.00
2018-03-31T03:34:53.748Z,0.00
2018-03-31T03:35:53.915Z,0.00
2018-03-31T03:36:54.079Z,0.00
2018-03-31T03:37:54.241Z,0.00
2018-03-31T03:38:54.426Z,0.00
2018-03-31T03:39:54.583Z,0.00
2018-03-31T03:40:54.747Z,0.00
2018-03-31T03:41:54.912Z,0.00
2018-03-31T03:42:55.077Z,0.00
2018-03-31T03:43:55.253Z,0.00
2018-03-31T03:44:55.415Z,0.00
2018-03-31T03:45:55.581Z,0.00
2018-03-31T03:46:55.746Z,0.00
2018-03-31T03:47:55.906Z,0.00
2018-03-31T03:48:56.075Z,0.00
2018-03-31T03:49:56.234Z,0.00
2018-03-31T03:50:56.404Z,0.00
2018-03-31T03:51:56.575Z,0.00
2018-03-31T03:52:56.747Z,0.00
2018-03-31T03:53:56.919Z,0.00
2018-03-31T03:54:57.090Z,0.00
2018-03-31T03:55:57.256Z,0.00
2018-03-31T03:56:57.422Z,0.00
2018-03-31T03:57:57.586Z,0.00
2018-03-31T03:58:57.754Z,0.00
2018-03-31T03:59:57.921Z,0.00
2018-03-31T04:00:58.110Z,0.00
2018-03-31T04:01:58.418Z,0.00
2018-03-31T04:02:58.434Z,0.00
2018-03-31T04:03:58.674Z,0.00
2018-03-31T04:04:58.706Z,0.00
2018-03-31T04:05:58.872Z,0.00
2018-03-31T04:06:59.040Z,0.00
2018-03-31T04:07:59.199Z,0.00
2018-03-31T04:08:59.364Z,0.00
2018-03-31T04:09:59.527Z,0.00
2018-03-31T04:10:59.695Z,0.00
2018-03-31T04:11:59.862Z,0.00
2018-03-31T04:13:00.028Z,0.00
2018-03-31T04:14:00.204Z,0.00
2018-03-31T04:15:00.362Z,0.00
2018-03-31T04:16:00.541Z,0.00
2018-03-31T04:17:00.708Z,0.00
2018-03-31T04:18:00.871Z,0.00
2018-03-31T04:19:01.043Z,0.00
2018-03-31T04:20:01.210Z,0.00
2018-03-31T04:21:01.379Z,0.00
2018-03-31T04:22:01.541Z,0.00
2018-03-31T04:23:01.712Z,0.00
2018-03-31T04:24:01.883Z,0.00
2018-03-31T04:25:02.047Z,0.00
2018-03-31T04:26:02.215Z,0.00
2018-03-31T04:27:02.380Z,0.00
2018-03-31T04:28:02.557Z,0.00
2018-03-31T04:29:02.728Z,0.00
2018-03-31T04:30:02.886Z,0.00
2018-03-31T04:31:03.049Z,0.00
2018-03-31T04:32:03.212Z,0.00
2018-03-31T04:33:03.383Z,0.00
2018-03-31T04:34:03.546Z,0.00
2018-03-31T04:35:03.718Z,0.00
2018-03-31T04:36:03.889Z,0.00
2018-03-31T04:37:04.059Z,4.00
2018-03-31T04:38:04.237Z,4.00
2018-03-31T04:39:04.395Z,0.00
2018-03-31T04:40:04.562Z,4.00
2018-03-31T04:41:04.729Z,4.00
2018-03-31T04:42:04.906Z,4.00
2018-03-31T04:43:05.080Z,8.00
2018-03-31T04:44:05.255Z,8.00
2018-03-31T04:45:05.413Z,12.00
2018-03-31T04:46:05.576Z,12.00
2018-03-31T04:47:05.737Z,12.00
2018-03-31T04:48:05.906Z,12.00
2018-03-31T04:49:06.086Z,16.00
2018-03-31T04:50:06.260Z,16.00
2018-03-31T04:51:06.426Z,20.00
2018-03-31T04:52:06.588Z,20.00
2018-03-31T04:53:06.762Z,24.00
2018-03-31T04:54:06.931Z,28.00
2018-03-31T04:55:07.097Z,28.00
2018-03-31T04:56:07.268Z,36.00
2018-03-31T04:57:07.435Z,40.00
2018-03-31T04:58:07.618Z,44.00
2018-03-31T04:59:07.781Z,52.00
2018-03-31T05:00:07.945Z,56.00
2018-03-31T05:01:08.113Z,64.00
2018-03-31T05:02:08.281Z,68.00
2018-03-31T05:03:08.462Z,76.00
2018-03-31T05:04:08.625Z,80.00
2018-03-31T05:05:08.799Z,88.00
2018-03-31T05:06:08.958Z,96.00
2018-03-31T05:07:09.124Z,104.00
2018-03-31T05:08:09.284Z,108.00
2018-03-31T05:09:09.455Z,116.00
2018-03-31T05:10:09.618Z,128.00
2018-03-31T05:11:09.780Z,132.00
2018-03-31T05:12:09.956Z,140.00
2018-03-31T05:13:10.126Z,152.00
2018-03-31T05:14:10.287Z,164.00
2018-03-31T05:15:10.452Z,176.00
2018-03-31T05:16:10.614Z,188.00
2018-03-31T05:17:10.781Z,200.00
2018-03-31T05:18:10.948Z,216.00
2018-03-31T05:19:11.128Z,228.00
2018-03-31T05:20:11.303Z,244.00
2018-03-31T05:21:11.467Z,252.00
2018-03-31T05:22:11.641Z,264.00
2018-03-31T05:23:11.808Z,272.00
2018-03-31T05:24:11.999Z,280.00
2018-03-31T05:25:12.166Z,296.00
2018-03-31T05:26:12.324Z,308.00
2018-03-31T05:27:12.494Z,324.00
2018-03-31T05:28:12.658Z,340.00
2018-03-31T05:29:12.826Z,352.00
2018-03-31T05:30:12.996Z,360.00
2018-03-31T05:31:13.181Z,360.00
2018-03-31T05:32:13.357Z,356.00
2018-03-31T05:33:13.528Z,348.00
2018-03-31T05:34:13.719Z,336.00
2018-03-31T05:35:13.884Z,328.00
2018-03-31T05:36:14.050Z,332.00
2018-03-31T05:37:14.220Z,348.00
2018-03-31T05:38:14.386Z,372.00
2018-03-31T05:39:14.567Z,396.00
2018-03-31T05:40:14.732Z,392.00
2018-03-31T05:41:14.896Z,364.00
2018-03-31T05:42:15.120Z,344.00
2018-03-31T05:43:15.228Z,336.00
2018-03-31T05:44:15.410Z,340.00
2018-03-31T05:45:15.570Z,340.00
2018-03-31T05:46:15.736Z,328.00
2018-03-31T05:47:15.906Z,312.00
2018-03-31T05:48:16.068Z,304.00
2018-03-31T05:49:16.236Z,308.00
2018-03-31T05:50:16.408Z,324.00
2018-03-31T05:51:16.569Z,344.00
2018-03-31T05:52:16.732Z,372.00
2018-03-31T05:53:16.895Z,416.00
2018-03-31T05:54:17.057Z,484.00
2018-03-31T05:55:17.219Z,552.00
2018-03-31T05:56:17.386Z,604.00
2018-03-31T05:57:17.556Z,620.00
2018-03-31T05:58:17.712Z,632.00
2018-03-31T05:59:17.875Z,636.00
2018-03-31T06:00:18.038Z,620.00
2018-03-31T06:01:18.207Z,580.00
2018-03-31T06:02:18.377Z,552.00
2018-03-31T06:03:18.595Z,548.00
2018-03-31T06:04:18.709Z,560.00
2018-03-31T06:05:18.886Z,580.00
2018-03-31T06:06:19.040Z,588.00
2018-03-31T06:07:19.199Z,588.00
2018-03-31T06:08:19.366Z,588.00
2018-03-31T06:09:19.530Z,592.00
2018-03-31T06:10:19.695Z,600.00
2018-03-31T06:11:19.865Z,604.00
2018-03-31T06:12:20.028Z,608.00
2018-03-31T06:13:20.193Z,620.00
2018-03-31T06:14:20.360Z,632.00
2018-03-31T06:15:20.527Z,640.00
2018-03-31T06:16:20.702Z,648.00
2018-03-31T06:17:20.862Z,652.00
2018-03-31T06:18:21.045Z,664.00
2018-03-31T06:19:21.197Z,676.00
2018-03-31T06:20:21.363Z,696.00
2018-03-31T06:21:21.529Z,712.00
2018-03-31T06:22:21.685Z,716.00
2018-03-31T06:23:21.865Z,708.00
2018-03-31T06:27:28.889Z,704.00
2018-03-31T06:28:28.819Z,712.00
2018-03-31T06:29:28.339Z,704.00
2018-03-31T06:30:28.502Z,688.00
2018-03-31T06:31:28.665Z,676.00
2018-03-31T06:32:28.821Z,676.00
2018-03-31T06:33:28.982Z,676.00
2018-03-31T06:34:29.144Z,688.00
2018-03-31T06:35:29.323Z,700.00
2018-03-31T06:36:29.478Z,712.00
2018-03-31T06:37:29.653Z,720.00
2018-03-31T06:38:29.823Z,740.00
2018-03-31T06:39:29.982Z,768.00
2018-03-31T06:40:30.163Z,792.00
2018-03-31T06:41:30.328Z,816.00
2018-03-31T06:42:30.500Z,836.00
2018-03-31T06:43:30.695Z,860.00
2018-03-31T06:44:30.841Z,900.00
2018-03-31T06:45:31.003Z,936.00
2018-03-31T06:46:31.171Z,952.00
2018-03-31T06:47:31.315Z,984.00
2018-03-31T06:48:31.477Z,1036.00
2018-03-31T06:49:31.667Z,1104.00
2018-03-31T06:50:31.802Z,1180.00
2018-03-31T06:51:32.003Z,1268.00
2018-03-31T06:52:32.154Z,1336.00
2018-03-31T06:53:32.826Z,1336.00
2018-03-31T06:54:33.334Z,1280.00
2018-03-31T06:55:32.651Z,1240.00
2018-03-31T06:56:32.838Z,1264.00
2018-03-31T06:57:32.998Z,1320.00
2018-03-31T06:58:33.193Z,1336.00
2018-03-31T06:59:33.370Z,1264.00
2018-03-31T07:00:33.544Z,1172.00
2018-03-31T07:01:33.696Z,1132.00
2018-03-31T07:02:33.859Z,1148.00
2018-03-31T07:03:34.850Z,1176.00
2018-03-31T07:04:34.274Z,1184.00
2018-03-31T07:05:34.427Z,1184.00
2018-03-31T07:06:35.357Z,1212.00
2018-03-31T07:07:34.741Z,1264.00
2018-03-31T07:08:34.918Z,1304.00
2018-03-31T07:09:35.861Z,1288.00
2018-03-31T07:10:35.284Z,1212.00
2018-03-31T07:11:35.469Z,1164.00
2018-03-31T07:12:36.341Z,1192.00
2018-03-31T07:13:35.863Z,1252.00
2018-03-31T07:14:35.989Z,1364.00
2018-03-31T07:15:36.166Z,1436.00
2018-03-31T07:16:36.356Z,1468.00
2018-03-31T07:17:36.521Z,1488.00
2018-03-31T07:18:36.711Z,1544.00
2018-03-31T07:19:36.870Z,1608.00
2018-03-31T07:20:37.039Z,1680.00
2018-03-31T07:21:37.197Z,1704.00
2018-03-31T07:22:37.393Z,1700.00
2018-03-31T07:23:37.515Z,1672.00
2018-03-31T07:24:37.733Z,1588.00
2018-03-31T07:25:37.957Z,1516.00
2018-03-31T07:26:38.048Z,1464.00
2018-03-31T07:27:38.235Z,1484.00
2018-03-31T07:28:38.417Z,1560.00
2018-03-31T07:29:38.586Z,1628.00
2018-03-31T07:30:39.408Z,1720.00
2018-03-31T07:31:39.862Z,2000.00
2018-03-31T07:32:39.153Z,2296.00
2018-03-31T07:33:39.326Z,2464.00
2018-03-31T07:34:39.521Z,2360.00
2018-03-31T07:35:39.685Z,2280.00
2018-03-31T07:36:39.866Z,2204.00
2018-03-31T07:37:40.062Z,2104.00
2018-03-31T07:38:40.858Z,2056.00
2018-03-31T07:39:40.425Z,2028.00
2018-03-31T07:40:40.618Z,1976.00
2018-03-31T07:41:40.796Z,1932.00
2018-03-31T07:42:41.845Z,1892.00
2018-03-31T07:43:41.843Z,1832.00
2018-03-31T07:44:41.313Z,1784.00
2018-03-31T07:45:41.446Z,1756.00
2018-03-31T07:46:41.619Z,1728.00
2018-03-31T07:47:41.786Z,1888.00
2018-03-31T07:48:41.978Z,1816.00
2018-03-31T07:49:42.147Z,1728.00
2018-03-31T07:50:42.842Z,1648.00
2018-03-31T07:51:42.501Z,1616.00
2018-03-31T07:52:42.672Z,1628.00
2018-03-31T07:53:43.852Z,1512.00
2018-03-31T07:54:43.856Z,1536.00
2018-03-31T07:55:43.180Z,1424.00
2018-03-31T07:56:43.378Z,1504.00
2018-03-31T07:57:43.524Z,1676.00
2018-03-31T07:58:43.693Z,1684.00
2018-03-31T07:59:44.031Z,1708.00
2018-03-31T08:00:44.078Z,1544.00
2018-03-31T08:01:44.274Z,1540.00
2018-03-31T08:02:44.429Z,1476.00
2018-03-31T08:03:44.621Z,1608.00
2018-03-31T08:04:44.811Z,1732.00
2018-03-31T08:05:44.971Z,1908.00
2018-03-31T08:06:45.147Z,1844.00
2018-03-31T08:07:45.322Z,1908.00
2018-03-31T08:08:45.484Z,2184.00
2018-03-31T08:09:45.680Z,2136.00
2018-03-31T08:10:45.852Z,2324.00
2018-03-31T08:11:46.003Z,2260.00
2018-03-31T08:12:46.166Z,2484.00
2018-03-31T08:13:46.337Z,2336.00
2018-03-31T08:14:46.510Z,2416.00
2018-03-31T08:15:46.675Z,2456.00
2018-03-31T08:16:47.352Z,2592.00
2018-03-31T08:17:47.029Z,2552.00
2018-03-31T08:18:47.217Z,2556.00
2018-03-31T08:19:47.383Z,2336.00
2018-03-31T08:20:47.583Z,2288.00
2018-03-31T08:21:47.750Z,2264.00
2018-03-31T08:22:47.911Z,2400.00
2018-03-31T08:23:48.087Z,2664.00
2018-03-31T08:24:48.295Z,2580.00
2018-03-31T08:25:48.457Z,2876.00
2018-03-31T08:26:48.602Z,3452.00
2018-03-31T08:27:48.798Z,3940.00
2018-03-31T08:28:48.960Z,4488.00
2018-03-31T08:29:49.147Z,4848.00
2018-03-31T08:30:49.332Z,5120.00
2018-03-31T08:31:50.355Z,5384.00
2018-03-31T08:32:49.675Z,5540.00
2018-03-31T08:33:49.842Z,5608.00
2018-03-31T08:34:50.033Z,5644.00
2018-03-31T08:35:50.848Z,5440.00
2018-03-31T08:36:51.359Z,5224.00
2018-03-31T08:37:50.544Z,4992.00
2018-03-31T08:38:50.700Z,4624.00
2018-03-31T08:39:50.870Z,4020.00
2018-03-31T08:40:51.030Z,4056.00
2018-03-31T08:41:51.201Z,3800.00
2018-03-31T08:42:51.360Z,3644.00
2018-03-31T08:43:51.534Z,3588.00
2018-03-31T08:44:51.697Z,3236.00
2018-03-31T08:45:51.866Z,3472.00
2018-03-31T08:46:52.032Z,3400.00
2018-03-31T08:47:52.205Z,3260.00
2018-03-31T08:48:52.372Z,3300.00
2018-03-31T08:49:52.537Z,3192.00
2018-03-31T08:50:52.705Z,3136.00
2018-03-31T08:51:52.874Z,3272.00
2018-03-31T08:52:53.039Z,3152.00
2018-03-31T08:53:53.203Z,2992.00
2018-03-31T08:54:53.380Z,2928.00
2018-03-31T08:55:53.533Z,3016.00
2018-03-31T08:56:53.707Z,2956.00
2018-03-31T08:57:53.860Z,2820.00
2018-03-31T08:58:54.054Z,2592.00
2018-03-31T08:59:54.224Z,2320.00
2018-03-31T09:00:54.388Z,2440.00
2018-03-31T09:01:54.557Z,2664.00
2018-03-31T09:02:54.723Z,2816.00
2018-03-31T09:03:54.903Z,2964.00
2018-03-31T09:04:55.065Z,3344.00
2018-03-31T09:05:55.230Z,3440.00
2018-03-31T09:06:55.397Z,3424.00
2018-03-31T09:07:55.563Z,3436.00
2018-03-31T09:08:55.742Z,3488.00
2018-03-31T09:09:55.892Z,3328.00
2018-03-31T09:10:56.064Z,2976.00
2018-03-31T09:11:56.232Z,2992.00
2018-03-31T09:12:56.400Z,3012.00
2018-03-31T09:13:56.563Z,2708.00
2018-03-31T09:14:56.725Z,2688.00
2018-03-31T09:15:56.904Z,2544.00
2018-03-31T09:16:57.062Z,2648.00
2018-03-31T09:17:57.239Z,2856.00
2018-03-31T09:18:57.403Z,2860.00
2018-03-31T09:19:57.591Z,2832.00
2018-03-31T09:20:57.762Z,2748.00
2018-03-31T09:21:57.921Z,2780.00
2018-03-31T09:22:58.113Z,2864.00
2018-03-31T09:23:58.273Z,2904.00
2018-03-31T09:24:58.430Z,2864.00
2018-03-31T09:25:58.599Z,2900.00
2018-03-31T09:26:58.770Z,2816.00
2018-03-31T09:27:58.943Z,2588.00
2018-03-31T09:28:59.084Z,2524.00
2018-03-31T09:29:59.287Z,2636.00
2018-03-31T09:30:59.452Z,2736.00
2018-03-31T09:32:00.363Z,2676.00
2018-03-31T09:32:59.844Z,2932.00
2018-03-31T09:33:59.953Z,3212.00
2018-03-31T09:35:00.133Z,3136.00
2018-03-31T09:36:00.291Z,2908.00
2018-03-31T09:37:00.645Z,2980.00
2018-03-31T09:38:00.587Z,2704.00
2018-03-31T09:39:00.751Z,2652.00
2018-03-31T09:40:00.960Z,2740.00
2018-03-31T09:41:01.111Z,2772.00
2018-03-31T09:42:01.264Z,2756.00
2018-03-31T09:43:01.450Z,2776.00
2018-03-31T09:44:01.587Z,2708.00
2018-03-31T09:45:01.767Z,2680.00
2018-03-31T09:46:01.937Z,2892.00
2018-03-31T09:47:02.871Z,2860.00
2018-03-31T09:48:02.252Z,2968.00
2018-03-31T09:49:02.452Z,2976.00
2018-03-31T09:50:02.580Z,2900.00
2018-03-31T09:51:02.795Z,2912.00
2018-03-31T09:52:02.948Z,3068.00
2018-03-31T09:53:03.889Z,3272.00
2018-03-31T09:54:03.292Z,3332.00
2018-03-31T09:55:03.498Z,3120.00
2018-03-31T09:56:03.672Z,3232.00
2018-03-31T09:57:03.851Z,3496.00
2018-03-31T09:58:04.038Z,3480.00
2018-03-31T09:59:04.210Z,3488.00
2018-03-31T10:00:05.369Z,3532.00
2018-03-31T10:01:04.546Z,3364.00
2018-03-31T10:02:05.381Z,3332.00
2018-03-31T10:03:05.874Z,3168.00
2018-03-31T10:04:05.133Z,3252.00
2018-03-31T10:05:05.886Z,3332.00
2018-03-31T10:06:05.394Z,3192.00
2018-03-31T10:07:05.591Z,3120.00
2018-03-31T10:08:05.760Z,3184.00
2018-03-31T10:09:05.945Z,3336.00
2018-03-31T10:10:06.143Z,3628.00
2018-03-31T10:11:06.309Z,4052.00
2018-03-31T10:12:06.494Z,4508.00
2018-03-31T10:13:06.676Z,4632.00
2018-03-31T10:14:07.370Z,4572.00
2018-03-31T10:15:07.030Z,4660.00
2018-03-31T10:16:07.182Z,4728.00
2018-03-31T10:17:07.353Z,4852.00
2018-03-31T10:18:07.502Z,5188.00
2018-03-31T10:19:07.680Z,5248.00
2018-03-31T10:20:07.858Z,4992.00
2018-03-31T10:21:08.028Z,4832.00
2018-03-31T10:22:08.201Z,5352.00
2018-03-31T10:23:08.374Z,5924.00
2018-03-31T10:24:09.373Z,5872.00
2018-03-31T10:25:09.365Z,5936.00
2018-03-31T10:26:08.882Z,6460.00
2018-03-31T10:27:09.060Z,6432.00
2018-03-31T10:28:09.249Z,6248.00
2018-03-31T10:29:10.442Z,5700.00
2018-03-31T10:30:10.374Z,5740.00
2018-03-31T10:31:10.371Z,6492.00
2018-03-31T10:32:10.008Z,6508.00
2018-03-31T10:33:10.173Z,5836.00
2018-03-31T10:34:10.354Z,5608.00
2018-03-31T10:35:10.595Z,6384.00
2018-03-31T10:36:10.729Z,7228.00
2018-03-31T10:37:10.922Z,6792.00
2018-03-31T10:38:11.098Z,5848.00
2018-03-31T10:39:11.289Z,5612.00
2018-03-31T10:40:11.465Z,5488.00
2018-03-31T10:41:11.664Z,5540.00
2018-03-31T10:42:11.820Z,5920.00
2018-03-31T10:43:12.002Z,6096.00
2018-03-31T10:44:12.604Z,5912.00
2018-03-31T10:45:12.340Z,6476.00
2018-03-31T10:46:12.487Z,7148.00
2018-03-31T10:47:12.642Z,7096.00
2018-03-31T10:48:12.810Z,7124.00
2018-03-31T10:49:12.987Z,7284.00
2018-03-31T10:50:13.156Z,7364.00
2018-03-31T10:51:13.334Z,7512.00
2018-03-31T10:52:13.496Z,7396.00
2018-03-31T10:53:13.694Z,7124.00
2018-03-31T10:54:13.840Z,6632.00
2018-03-31T10:55:14.024Z,7128.00
2018-03-31T10:56:14.207Z,6860.00
2018-03-31T10:57:14.893Z,6960.00
2018-03-31T10:58:14.546Z,7740.00
2018-03-31T10:59:14.709Z,7764.00
2018-03-31T11:00:14.888Z,7284.00
2018-03-31T11:01:15.055Z,7300.00
2018-03-31T11:02:15.197Z,7784.00
2018-03-31T11:03:16.374Z,7420.00
2018-03-31T11:04:16.375Z,8104.00
2018-03-31T11:05:15.748Z,8708.00
2018-03-31T11:06:15.916Z,8624.00
2018-03-31T11:07:16.084Z,7996.00
2018-03-31T11:08:16.261Z,8108.00
2018-03-31T11:09:16.473Z,8800.00
2018-03-31T11:10:16.579Z,9636.00
2018-03-31T11:11:16.776Z,10836.00
2018-03-31T11:12:16.950Z,12052.00
2018-03-31T11:13:17.112Z,11408.00
2018-03-31T11:14:17.304Z,12080.00
2018-03-31T11:15:17.470Z,12988.00
2018-03-31T11:16:17.649Z,12916.00
2018-03-31T11:17:17.801Z,13804.00
2018-03-31T11:18:17.996Z,14220.00
2018-03-31T11:19:18.190Z,13924.00
2018-03-31T11:20:18.368Z,13156.00
2018-03-31T11:21:18.541Z,13192.00
2018-03-31T11:22:19.378Z,13412.00
2018-03-31T11:23:18.902Z,12000.00
2018-03-31T11:24:19.159Z,11764.00
2018-03-31T11:25:19.886Z,11044.00
2018-03-31T11:26:19.459Z,10456.00
2018-03-31T11:27:19.638Z,10016.00
2018-03-31T11:28:19.816Z,11228.00
2018-03-31T11:29:20.003Z,12920.00
2018-03-31T11:30:20.900Z,12180.00
2018-03-31T11:31:20.607Z,10532.00
2018-03-31T11:32:20.575Z,10044.00
2018-03-31T11:33:20.696Z,9808.00
2018-03-31T11:34:20.974Z,9068.00
2018-03-31T11:35:21.105Z,8648.00
2018-03-31T11:36:21.888Z,8972.00
2018-03-31T11:37:22.384Z,9136.00
2018-03-31T11:38:22.391Z,9036.00
2018-03-31T11:39:21.769Z,9060.00
2018-03-31T11:40:22.158Z,9304.00
2018-03-31T11:41:22.919Z,9852.00
2018-03-31T11:42:22.303Z,10060.00
2018-03-31T11:43:22.692Z,10240.00
2018-03-31T11:44:22.557Z,10236.00
2018-03-31T11:45:22.746Z,9648.00
2018-03-31T11:46:22.944Z,9416.00
2018-03-31T11:47:23.108Z,10304.00
2018-03-31T11:48:23.281Z,11744.00
2018-03-31T11:49:23.451Z,13052.00
2018-03-31T11:50:23.632Z,13332.00
2018-03-31T11:51:23.831Z,12648.00
2018-03-31T11:52:24.107Z,12160.00
2018-03-31T11:53:24.185Z,11728.00
2018-03-31T11:54:24.414Z,10992.00
2018-03-31T11:55:24.586Z,10264.00
2018-03-31T11:56:24.766Z,9620.00
2018-03-31T11:57:24.948Z,9492.00
2018-03-31T11:58:25.233Z,10572.00
2018-03-31T11:59:25.899Z,11380.00
2018-03-31T12:00:25.403Z,12276.00
2018-03-31T12:01:26.397Z,14124.00
2018-03-31T12:02:25.807Z,15608.00
2018-03-31T12:03:26.004Z,16436.00
2018-03-31T12:04:26.208Z,13940.00
2018-03-31T12:05:26.385Z,11720.00
2018-03-31T12:06:26.574Z,10388.00
2018-03-31T12:07:26.743Z,10496.00
2018-03-31T12:08:27.897Z,11280.00
2018-03-31T12:09:27.112Z,12552.00
2018-03-31T12:10:27.907Z,13920.00
2018-03-31T12:11:27.602Z,13148.00
2018-03-31T12:12:27.672Z,11540.00
2018-03-31T12:13:28.406Z,9888.00
2018-03-31T12:14:28.034Z,9748.00
2018-03-31T12:15:28.217Z,10792.00
2018-03-31T12:16:28.391Z,9920.00
2018-03-31T12:17:28.558Z,9536.00
2018-03-31T12:18:28.740Z,9656.00
2018-03-31T12:19:28.918Z,9376.00
2018-03-31T12:20:29.087Z,7700.00
2018-03-31T12:21:29.261Z,7100.00
2018-03-31T12:22:29.436Z,8060.00
2018-03-31T12:23:30.416Z,10052.00
2018-03-31T12:24:29.798Z,11928.00
2018-03-31T12:25:30.148Z,14756.00
2018-03-31T12:26:30.082Z,15536.00
2018-03-31T12:27:30.252Z,22112.00
2018-03-31T12:28:30.542Z,24960.00
2018-03-31T12:29:30.598Z,23584.00
2018-03-31T12:30:30.778Z,28992.00
2018-03-31T12:31:30.942Z,29728.00
2018-03-31T12:32:31.113Z,20800.00
2018-03-31T12:33:31.279Z,24288.00
2018-03-31T12:34:31.441Z,17344.00
2018-03-31T12:35:31.590Z,14500.00
2018-03-31T12:36:31.868Z,12812.00
2018-03-31T12:37:31.997Z,11640.00
2018-03-31T12:38:32.173Z,11244.00